EDT,Max TemperatureF,Mean TemperatureF,Min TemperatureF,Max Dew PointF,MeanDew PointF,Min DewpointF,Max Humidity, Mean Humidity, Min Humidity, Max Sea Level PressureIn, Mean Sea Level PressureIn, Min Sea Level PressureIn, Max VisibilityMiles, Mean VisibilityMiles, Min VisibilityMiles, Max Wind SpeedMPH, Mean Wind SpeedMPH, Max Gust SpeedMPH,PrecipitationIn, CloudCover, Events, WindDirDegrees
2013-4-1,61,47,37,45,35,11,100,77,30,29.96,29.76,29.71,10,5,0,18,3,30,0.00,1,Fog,281
2013-4-2,45,36,28,17,13,11,56,38,26,30.13,30.05,29.98,10,10,10,18,7,28,0.00,1,,293
2013-4-3,46,36,28,16,13,8,56,38,26,30.34,30.22,30.14,10,10,10,16,6,26,0.00,1,,293
2013-4-4,53,38,24,27,17,10,69,43,26,30.43,30.29,30.10,10,10,10,8,2,,0.00,0,,227
2013-4-5,63,50,37,32,24,15,79,41,20,30.08,29.91,29.78,10,10,10,17,6,28,0.00,2,,313
2013-4-6,53,42,33,23,17,12,52,38,20,30.33,30.25,30.07,10,10,10,15,4,24,0.00,0,,338
2013-4-7,64,52,39,42,33,23,67,51,37,30.30,30.15,30.00,10,10,10,13,5,21,0.00,1,,185
2013-4-8,78,62,46,49,44,40,80,52,30,30.08,30.01,29.96,10,10,10,8,2,,0.00,1,,224
2013-4-9,82,70,57,52,49,42,74,46,24,30.02,29.97,29.90,10,10,10,17,5,25,0.00,1,,252
2013-4-10,87,72,59,63,56,51,94,65,35,29.94,29.87,29.77,10,8,1,21,5,37,1.14,4,Rain,264
2013-4-11,66,57,50,61,55,43,100,87,70,29.95,29.90,29.80,10,8,0,12,4,20,0.01,5,Fog,54
2013-4-12,48,46,44,45,43,42,97,92,80,29.94,29.79,29.70,10,6,2,15,9,24,0.61,8,Rain,69
2013-4-13,60,49,39,43,38,32,100,74,41,29.99,29.87,29.79,10,8,1,13,4,23,0.00,4,,313
2013-4-14,61,49,37,38,33,26,89,57,34,30.17,30.09,29.99,10,10,8,12,3,22,0.00,2,,308
2013-4-15,60,52,46,43,37,30,71,58,48,30.35,30.29,30.18,10,10,10,7,5,,0.01,6,Rain,102
2013-4-16,72,58,46,55,49,42,83,69,57,30.34,30.27,30.13,10,10,10,12,4,23,0.01,5,,176
2013-4-17,72,64,57,56,46,30,90,62,22,30.28,30.20,30.10,10,10,10,14,4,18,0.00,5,Rain,344
2013-4-18,62,58,53,56,51,40,96,82,59,30.29,30.22,30.06,10,8,2,8,3,,0.03,7,Rain,100
2013-4-19,78,66,52,64,60,46,94,83,58,30.06,29.83,29.61,10,9,1,15,7,36,1.23,8,Rain,202
2013-4-20,57,50,43,46,32,24,86,53,34,30.34,30.03,29.76,10,10,10,14,8,26,0.08,3,Rain,293
2013-4-21,55,44,35,31,24,20,60,46,31,30.62,30.53,30.36,10,10,10,14,7,18,0.00,0,,18
2013-4-22,54,44,35,37,32,29,82,62,43,30.63,30.55,30.46,10,10,10,12,4,21,0.00,1,,79
2013-4-23,52,46,42,43,39,33,82,72,63,30.44,30.28,30.15,10,10,7,13,5,,0.00,8,Rain,66
2013-4-24,59,49,39,49,42,37,97,85,67,30.13,29.99,29.83,10,10,10,17,3,28,0.00,3,Rain,212
2013-4-25,62,54,44,33,29,25,61,39,25,30.30,30.19,29.98,10,10,10,15,10,31,0.00,1,,303
2013-4-26,64,50,37,38,31,24,83,50,24,30.44,30.38,30.30,10,10,10,9,3,,0.00,0,,320
2013-4-27,69,52,37,38,33,29,79,46,25,30.45,30.37,30.29,10,10,10,6,1,,0.00,0,,197
2013-4-28,70,57,44,42,36,29,82,49,28,30.31,30.25,30.19,10,10,10,12,3,18,0.00,2,Rain,184
2013-4-29,61,29,1,56,51,1,100,93,64,30.21,30.16,30.12,10,6,2,7,2,,0.43,8,Rain,110
2013-4-30,68,34,1,54,45,1,100,80,34,30.33,30.23,30.17,10,8,2,12,5,17,0.02,5,Rain,87